sensor_id;sensor_type;location;lat;lon;timestamp;P1;durP1;ratioP1;P2;durP2;ratioP2
63782;SDS011;49925;52.522;5.732;2022-08-01T17:22:00;15.75;;;2.22;;
63782;SDS011;49925;52.522;5.732;2022-08-01T17:24:28;16.98;;;2.33;;
63782;SDS011;49925;52.522;5.732;2022-08-01T17:26:55;13.82;;;2.20;;
63782;SDS011;49925;52.522;5.732;2022-08-01T17:29:23;13.20;;;2.45;;
63782;SDS011;49925;52.522;5.732;2022-08-01T17:31:50;12.38;;;2.40;;
63782;SDS011;49925;52.522;5.732;2022-08-01T17:34:17;11.45;;;2.33;;
63782;SDS011;49925;52.522;5.732;2022-08-01T19:26:55;10.52;;;2.45;;
63782;SDS011;49925;52.522;5.732;2022-08-01T19:29:34;11.02;;;3.10;;
63782;SDS011;49925;52.522;5.732;2022-08-01T19:32:04;11.90;;;2.80;;
63782;SDS011;49925;52.522;5.732;2022-08-01T19:34:35;10.00;;;2.83;;
63782;SDS011;49925;52.522;5.732;2022-08-01T19:37:11;18.73;;;2.90;;
63782;SDS011;49925;52.522;5.732;2022-08-01T19:39:38;15.98;;;4.80;;
63782;SDS011;49925;52.522;5.732;2022-08-01T19:44:38;13.23;;;2.90;;
63782;SDS011;49925;52.522;5.732;2022-08-01T19:52:01;13.90;;;3.07;;
63782;SDS011;49925;52.522;5.732;2022-08-01T19:54:31;19.90;;;3.37;;
63782;SDS011;49925;52.522;5.732;2022-08-01T19:57:01;13.23;;;2.72;;
63782;SDS011;49925;52.522;5.732;2022-08-01T19:59:31;17.42;;;4.57;;
63782;SDS011;49925;52.522;5.732;2022-08-01T20:02:03;13.30;;;3.90;;
63782;SDS011;49925;52.522;5.732;2022-08-01T20:04:31;17.38;;;4.32;;
63782;SDS011;49925;52.522;5.732;2022-08-01T20:06:59;10.18;;;3.30;;
63782;SDS011;49925;52.522;5.732;2022-08-01T20:09:28;17.33;;;3.88;;
63782;SDS011;49925;52.522;5.732;2022-08-01T20:11:56;13.03;;;3.67;;
63782;SDS011;49925;52.522;5.732;2022-08-01T20:14:24;24.33;;;3.90;;
63782;SDS011;49925;52.522;5.732;2022-08-01T20:16:53;17.05;;;3.67;;
63782;SDS011;49925;52.522;5.732;2022-08-01T20:19:22;13.60;;;3.33;;
63782;SDS011;49925;52.522;5.732;2022-08-01T20:21:54;16.02;;;3.63;;
63782;SDS011;49925;52.522;5.732;2022-08-01T20:24:33;20.23;;;3.88;;
63782;SDS011;49925;52.522;5.732;2022-08-01T20:27:12;9.95;;;2.83;;
63782;SDS011;49925;52.522;5.732;2022-08-01T20:29:41;13.00;;;2.85;;
63782;SDS011;49925;52.522;5.732;2022-08-01T20:32:10;12.73;;;3.17;;
63782;SDS011;49925;52.522;5.732;2022-08-01T20:34:39;14.38;;;2.90;;
63782;SDS011;49925;52.522;5.732;2022-08-01T20:37:09;9.40;;;2.88;;
63782;SDS011;49925;52.522;5.732;2022-08-01T20:39:38;10.75;;;3.00;;
63782;SDS011;49925;52.522;5.732;2022-08-01T20:42:11;4.55;;;2.35;;
63782;SDS011;49925;52.522;5.732;2022-08-01T20:47:13;15.35;;;3.92;;
63782;SDS011;49925;52.522;5.732;2022-08-01T20:49:43;14.90;;;5.13;;
63782;SDS011;49925;52.522;5.732;2022-08-01T20:52:17;13.65;;;5.20;;
63782;SDS011;49925;52.522;5.732;2022-08-01T20:54:47;15.15;;;4.10;;
63782;SDS011;49925;52.522;5.732;2022-08-01T20:57:18;17.60;;;5.43;;
63782;SDS011;49925;52.522;5.732;2022-08-01T20:59:55;13.52;;;4.45;;
63782;SDS011;49925;52.522;5.732;2022-08-01T21:05:33;16.25;;;3.90;;
63782;SDS011;49925;52.522;5.732;2022-08-01T21:10:54;14.82;;;3.88;;
63782;SDS011;49925;52.522;5.732;2022-08-01T21:13:26;12.98;;;4.20;;
63782;SDS011;49925;52.522;5.732;2022-08-01T21:16:05;14.00;;;3.83;;
63782;SDS011;49925;52.522;5.732;2022-08-01T21:18:53;11.75;;;4.78;;
63782;SDS011;49925;52.522;5.732;2022-08-01T21:21:49;14.40;;;5.10;;
63782;SDS011;49925;52.522;5.732;2022-08-01T21:24:22;12.88;;;3.90;;
63782;SDS011;49925;52.522;5.732;2022-08-01T21:26:54;18.10;;;3.83;;
63782;SDS011;49925;52.522;5.732;2022-08-01T21:29:22;14.18;;;3.30;;
63782;SDS011;49925;52.522;5.732;2022-08-01T21:42:03;14.65;;;2.50;;
63782;SDS011;49925;52.522;5.732;2022-08-01T21:47:04;8.82;;;2.70;;
63782;SDS011;49925;52.522;5.732;2022-08-01T22:25:59;20.00;;;3.13;;
63782;SDS011;49925;52.522;5.732;2022-08-01T22:28:29;19.95;;;3.28;;
63782;SDS011;49925;52.522;5.732;2022-08-01T22:30:58;10.98;;;3.30;;
63782;SDS011;49925;52.522;5.732;2022-08-01T22:33:27;17.10;;;3.25;;
63782;SDS011;49925;52.522;5.732;2022-08-01T22:35:55;12.45;;;3.00;;
63782;SDS011;49925;52.522;5.732;2022-08-01T22:38:22;9.35;;;2.97;;
63782;SDS011;49925;52.522;5.732;2022-08-01T22:40:51;13.55;;;3.13;;
63782;SDS011;49925;52.522;5.732;2022-08-01T22:43:24;13.90;;;3.65;;
63782;SDS011;49925;52.522;5.732;2022-08-01T22:46:23;14.70;;;3.50;;
63782;SDS011;49925;52.522;5.732;2022-08-01T22:49:11;8.90;;;3.20;;
63782;SDS011;49925;52.522;5.732;2022-08-01T22:52:06;14.63;;;3.47;;
63782;SDS011;49925;52.522;5.732;2022-08-01T22:54:49;13.52;;;3.58;;
63782;SDS011;49925;52.522;5.732;2022-08-01T22:57:34;14.70;;;3.40;;
63782;SDS011;49925;52.522;5.732;2022-08-01T23:06:02;10.63;;;3.80;;
63782;SDS011;49925;52.522;5.732;2022-08-01T23:16:01;11.38;;;3.90;;
